Time;durP1;ratioP1;P1;durP2;ratioP2;P2;SDS_P1;SDS_P2;PMS_P1;PMS_P2;Temp;Humidity;BMP_temperature;BMP_pressure;BME280_temperature;BME280_humidity;BME280_pressure;Samples;Min_cycle;Max_cycle;Signal;HPM_P1;HPM_P2
2023/06/05 00:00:38;;;;;;;1.38;1.10;;;13.10;75.10;;;;;;4998870;28;20038;-57
2023/06/05 00:03:04;;;;;;;3.13;1.50;;;13.00;77.50;;;;;;5000406;28;20065;-60
2023/06/05 00:05:31;;;;;;;3.75;1.45;;;12.90;77.30;;;;;;4999184;28;20109;-60
2023/06/05 00:07:56;;;;;;;3.35;1.30;;;12.90;75.90;;;;;;5001623;28;20159;-60
2023/06/05 00:10:22;;;;;;;2.10;1.30;;;12.80;76.90;;;;;;4998569;28;20616;-59
2023/06/05 00:12:48;;;;;;;3.05;1.42;;;12.80;76.90;;;;;;4998577;28;20062;-59
2023/06/05 00:15:13;;;;;;;4.45;1.80;;;12.70;78.40;;;;;;5000558;28;22633;-58
2023/06/05 00:17:39;;;;;;;2.58;1.33;;;12.70;78.20;;;;;;4998363;28;20114;-59
2023/06/05 00:20:05;;;;;;;3.15;1.30;;;12.60;78.90;;;;;;4998070;28;20054;-59
2023/06/05 00:22:33;;;;;;;1.63;1.42;;;12.60;79.20;;;;;;4997818;28;20446;-59
2023/06/05 00:24:59;;;;;;;2.08;1.30;;;12.50;80.30;;;;;;4998177;28;20080;-58
2023/06/05 00:27:25;;;;;;;4.55;1.85;;;12.50;80.10;;;;;;4997074;28;20030;-59
2023/06/05 00:29:50;;;;;;;4.43;1.90;;;12.50;81.00;;;;;;5000253;28;20034;-60
2023/06/05 00:32:16;;;;;;;2.40;1.75;;;12.50;80.50;;;;;;4996883;28;20041;-58
2023/06/05 00:34:42;;;;;;;2.38;1.58;;;12.40;81.90;;;;;;5000301;28;20096;-59
2023/06/05 00:37:07;;;;;;;2.47;2.00;;;12.40;82.30;;;;;;4995119;28;20026;-59
2023/06/05 00:39:33;;;;;;;3.20;1.70;;;12.40;81.50;;;;;;5001207;28;20378;-59
2023/06/05 00:41:59;;;;;;;4.40;2.20;;;12.30;81.10;;;;;;4997185;28;20463;-58
2023/06/05 00:44:25;;;;;;;2.53;1.77;;;12.30;81.60;;;;;;4999175;28;20537;-59
2023/06/05 00:46:52;;;;;;;2.70;1.80;;;12.20;82.50;;;;;;4996517;28;20510;-58
2023/06/05 00:49:18;;;;;;;3.30;1.77;;;12.10;82.60;;;;;;4996978;28;20141;-59
2023/06/05 00:51:45;;;;;;;2.25;1.40;;;12.10;82.60;;;;;;5000701;28;20034;-58
2023/06/05 00:54:13;;;;;;;3.85;2.08;;;12.00;82.90;;;;;;5000064;28;20030;-59
2023/06/05 00:56:41;;;;;;;2.65;1.70;;;11.90;82.60;;;;;;4999750;28;20091;-59
2023/06/05 00:59:07;;;;;;;2.65;1.95;;;11.90;83.00;;;;;;4997868;28;20033;-59
2023/06/05 01:01:34;;;;;;;2.75;1.77;;;11.90;83.70;;;;;;4998231;28;20026;-58
2023/06/05 01:04:00;;;;;;;13.00;2.40;;;11.80;83.90;;;;;;5002705;28;20030;-59
2023/06/05 01:06:27;;;;;;;3.35;2.00;;;11.80;84.00;;;;;;4998699;28;20514;-60
2023/06/05 01:08:53;;;;;;;2.70;2.10;;;11.80;85.80;;;;;;4998567;28;20030;-59
2023/06/05 01:11:25;;;;;;;3.15;1.70;;;11.70;87.00;;;;;;5001291;28;20129;-58
2023/06/05 01:14:02;;;;;;;2.85;1.55;;;11.60;87.70;;;;;;4999014;28;20034;-59
2023/06/05 01:16:32;;;;;;;4.30;1.90;;;11.50;87.90;;;;;;5000840;28;20581;-59
2023/06/05 01:19:02;;;;;;;3.05;1.40;;;11.30;88.90;;;;;;4997287;28;20041;-60
2023/06/05 01:21:30;;;;;;;2.90;1.58;;;11.20;89.80;;;;;;4998891;28;20061;-60
2023/06/05 01:23:56;;;;;;;3.13;1.70;;;11.10;90.90;;;;;;5000638;28;20026;-59
2023/06/05 01:26:30;;;;;;;2.65;1.50;;;11.00;91.40;;;;;;5000637;28;20029;-59
2023/06/05 01:28:57;;;;;;;1.95;1.40;;;10.80;92.40;;;;;;4999569;28;20035;-60
2023/06/05 01:31:23;;;;;;;3.65;1.50;;;10.60;93.80;;;;;;4995513;28;20052;-59
2023/06/05 01:33:56;;;;;;;3.45;1.48;;;10.40;95.50;;;;;;4998255;28;20038;-58
2023/06/05 01:36:23;;;;;;;3.95;1.63;;;10.30;98.00;;;;;;4998765;28;20037;-60
2023/06/05 01:38:51;;;;;;;1.77;1.40;;;10.20;99.90;;;;;;5000312;28;20073;-60
2023/06/05 01:41:18;;;;;;;3.47;1.60;;;10.10;99.90;;;;;;4998788;28;20030;-60
2023/06/05 01:43:46;;;;;;;2.22;1.63;;;10.00;99.90;;;;;;4997231;28;20045;-59
2023/06/05 01:46:13;;;;;;;1.80;1.63;;;9.90;99.90;;;;;;4999086;28;20044;-60
2023/06/05 01:48:39;;;;;;;5.78;1.48;;;9.90;99.90;;;;;;4996350;28;20050;-59
2023/06/05 01:51:05;;;;;;;2.22;1.40;;;9.80;99.90;;;;;;4999243;28;20076;-57
2023/06/05 01:53:31;;;;;;;2.10;1.90;;;9.80;99.90;;;;;;4999025;28;20077;-59
2023/06/05 01:55:57;;;;;;;2.85;1.60;;;9.70;99.90;;;;;;4995013;28;20026;-60
2023/06/05 01:58:26;;;;;;;4.15;1.88;;;9.70;99.90;;;;;;4997414;28;20061;-60
2023/06/05 02:00:58;;;;;;;3.38;1.73;;;9.60;99.90;;;;;;4999776;28;20526;-60
2023/06/05 02:03:24;;;;;;;2.88;1.83;;;9.50;99.90;;;;;;4993295;28;20080;-59
2023/06/05 02:05:54;;;;;;;3.33;1.60;;;9.50;99.90;;;;;;4996183;28;20430;-59
2023/06/05 02:08:22;;;;;;;2.10;1.30;;;9.40;99.90;;;;;;4996179;28;20375;-59
2023/06/05 02:10:52;;;;;;;2.47;1.48;;;9.30;99.90;;;;;;4996219;28;20040;-59
2023/06/05 02:13:23;;;;;;;2.17;1.30;;;9.20;99.90;;;;;;4995927;28;20077;-59
2023/06/05 02:15:52;;;;;;;2.33;1.63;;;9.20;99.90;;;;;;4995674;28;20031;-59
2023/06/05 02:18:17;;;;;;;2.28;1.88;;;9.20;99.90;;;;;;4999109;28;20029;-58
2023/06/05 02:20:43;;;;;;;2.42;1.52;;;9.20;99.90;;;;;;4994586;28;20022;-59
2023/06/05 02:23:09;;;;;;;2.25;1.40;;;9.20;99.90;;;;;;4996814;28;20029;-59
2023/06/05 02:25:35;;;;;;;2.60;1.70;;;9.20;99.90;;;;;;4999228;28;20037;-59
2023/06/05 02:28:01;;;;;;;1.55;1.40;;;9.20;99.90;;;;;;4998259;28;20030;-58
2023/06/05 02:30:26;;;;;;;2.78;1.70;;;9.10;99.90;;;;;;4994285;28;20043;-59
2023/06/05 02:32:56;;;;;;;1.92;1.50;;;9.10;99.90;;;;;;4999191;28;20496;-59
2023/06/05 02:35:22;;;;;;;3.20;1.80;;;9.10;99.90;;;;;;4995097;28;20053;-60
2023/06/05 02:37:48;;;;;;;2.00;1.27;;;9.10;99.90;;;;;;4994097;28;20377;-59
2023/06/05 02:40:14;;;;;;;2.90;1.55;;;9.10;99.90;;;;;;4996808;28;20030;-59
2023/06/05 02:42:40;;;;;;;2.35;1.65;;;9.00;99.90;;;;;;4998557;28;20023;-58
2023/06/05 02:45:07;;;;;;;2.40;1.70;;;9.10;99.90;;;;;;4996048;28;20026;-59
2023/06/05 02:47:33;;;;;;;4.95;1.60;;;9.00;99.90;;;;;;4997815;28;20018;-59
2023/06/05 02:49:59;;;;;;;2.50;1.48;;;9.00;99.90;;;;;;4998883;28;20053;-59
2023/06/05 02:52:24;;;;;;;2.15;1.80;;;9.00;99.90;;;;;;4996402;28;20094;-59
2023/06/05 02:54:51;;;;;;;4.38;1.83;;;9.00;99.90;;;;;;4998155;28;20061;-59
2023/06/05 02:57:17;;;;;;;1.98;1.67;;;9.00;99.90;;;;;;4997983;28;20037;-59
2023/06/05 02:59:43;;;;;;;3.28;1.80;;;9.00;99.90;;;;;;4998823;28;20025;-58
2023/06/05 03:02:09;;;;;;;3.15;1.70;;;9.00;99.90;;;;;;4994620;28;20034;-59
2023/06/05 03:04:36;;;;;;;2.38;1.88;;;9.00;99.90;;;;;;4997673;28;20022;-59
2023/06/05 03:07:04;;;;;;;3.15;1.95;;;9.00;99.90;;;;;;4996249;28;20023;-59
2023/06/05 03:09:30;;;;;;;3.40;1.98;;;8.90;99.90;;;;;;4993861;28;20537;-59
2023/06/05 03:11:57;;;;;;;5.65;2.13;;;8.90;99.90;;;;;;4997285;28;20032;-59
2023/06/05 03:14:22;;;;;;;2.38;1.90;;;8.80;99.90;;;;;;4996939;28;20026;-60
2023/06/05 03:16:48;;;;;;;4.80;2.42;;;8.70;99.90;;;;;;4997727;28;20030;-59
2023/06/05 03:19:14;;;;;;;5.93;1.58;;;8.70;99.90;;;;;;4996494;28;20034;-59
2023/06/05 03:21:41;;;;;;;2.50;1.65;;;8.60;99.90;;;;;;4994787;28;20030;-59
2023/06/05 03:24:12;;;;;;;4.70;1.77;;;8.60;99.90;;;;;;5001583;28;20022;-59
2023/06/05 03:26:39;;;;;;;5.43;1.90;;;8.50;99.90;;;;;;5000794;28;20671;-59
2023/06/05 03:29:05;;;;;;;3.47;2.30;;;8.40;99.90;;;;;;5002045;28;20859;-58
2023/06/05 03:31:31;;;;;;;4.22;1.80;;;8.40;99.90;;;;;;5000198;28;20041;-59
2023/06/05 03:33:58;;;;;;;3.83;2.30;;;8.40;99.90;;;;;;5001417;28;20034;-58
2023/06/05 03:36:23;;;;;;;3.00;1.65;;;8.30;99.90;;;;;;5001535;28;20107;-59
2023/06/05 03:38:49;;;;;;;3.30;1.90;;;8.30;99.90;;;;;;4999102;28;20113;-59
2023/06/05 03:41:16;;;;;;;5.75;2.10;;;8.30;99.90;;;;;;4999301;28;20421;-59
2023/06/05 03:43:41;;;;;;;3.55;2.00;;;8.30;99.90;;;;;;4998259;28;20121;-59
2023/06/05 03:46:07;;;;;;;2.95;2.03;;;8.30;99.90;;;;;;5001624;28;20070;-59
2023/06/05 03:48:33;;;;;;;3.08;1.60;;;8.40;99.90;;;;;;5002596;28;20137;-59
2023/06/05 03:51:00;;;;;;;3.17;2.10;;;8.50;99.90;;;;;;4999444;28;20064;-58
2023/06/05 03:53:29;;;;;;;2.40;1.80;;;8.50;99.90;;;;;;5000695;28;20795;-59
2023/06/05 03:55:56;;;;;;;3.42;1.90;;;8.60;99.90;;;;;;5001669;28;20230;-58
2023/06/05 03:58:23;;;;;;;3.25;2.25;;;8.60;99.90;;;;;;5002818;28;20042;-58
2023/06/05 04:00:48;;;;;;;3.13;1.92;;;8.60;99.90;;;;;;5001444;28;20029;-59
2023/06/05 04:03:15;;;;;;;4.18;1.92;;;8.60;99.90;;;;;;5000772;28;20386;-58
2023/06/05 04:05:41;;;;;;;2.80;1.88;;;8.60;99.90;;;;;;4998794;28;21002;-58
2023/06/05 04:08:11;;;;;;;2.75;2.35;;;8.50;99.90;;;;;;5000784;28;20117;-60
2023/06/05 04:10:37;;;;;;;2.58;1.70;;;8.60;99.90;;;;;;5001765;28;20037;-60
2023/06/05 04:13:03;;;;;;;6.88;1.77;;;8.60;99.90;;;;;;4998277;28;20022;-58
2023/06/05 04:15:29;;;;;;;2.10;1.58;;;8.50;99.90;;;;;;5000005;28;20041;-59
2023/06/05 04:17:55;;;;;;;4.10;2.10;;;8.50;99.90;;;;;;4998823;28;20664;-59
2023/06/05 04:20:21;;;;;;;2.80;1.70;;;8.50;99.90;;;;;;4999170;28;20025;-58
2023/06/05 04:22:47;;;;;;;3.03;2.13;;;8.50;99.90;;;;;;5000805;28;20027;-59
2023/06/05 04:25:14;;;;;;;3.45;1.80;;;8.50;99.90;;;;;;5001530;28;20036;-59
2023/06/05 04:27:44;;;;;;;3.00;2.28;;;8.50;99.90;;;;;;4998153;28;20034;-60
2023/06/05 04:30:12;;;;;;;2.37;1.80;;;8.60;99.90;;;;;;4997546;28;20025;-59
2023/06/05 04:32:39;;;;;;;4.63;2.28;;;8.60;99.90;;;;;;5002414;28;20257;-58
2023/06/05 04:35:06;;;;;;;3.17;2.03;;;8.60;99.90;;;;;;5002793;28;20027;-59
2023/06/05 04:37:32;;;;;;;2.95;1.92;;;8.70;99.90;;;;;;4997509;28;20486;-59
2023/06/05 04:39:58;;;;;;;2.15;1.83;;;8.70;99.90;;;;;;4996530;28;20030;-58
2023/06/05 04:42:25;;;;;;;3.75;1.92;;;8.70;99.90;;;;;;5000137;28;20022;-58
2023/06/05 04:44:58;;;;;;;3.70;1.70;;;8.80;99.90;;;;;;5000848;28;20034;-58
2023/06/05 04:47:24;;;;;;;1.65;1.55;;;8.70;99.90;;;;;;4997392;28;20521;-59
2023/06/05 04:49:51;;;;;;;2.70;2.00;;;8.80;99.90;;;;;;5000410;28;20161;-58
2023/06/05 04:52:17;;;;;;;2.75;1.73;;;8.80;99.90;;;;;;5000049;28;20521;-59
2023/06/05 04:54:43;;;;;;;4.15;1.75;;;8.90;99.90;;;;;;4997046;28;20038;-59
2023/06/05 04:57:10;;;;;;;2.50;1.70;;;9.00;99.90;;;;;;4997653;28;20042;-59
2023/06/05 04:59:36;;;;;;;2.13;1.70;;;9.10;99.90;;;;;;4999848;28;20026;-59
2023/06/05 05:02:02;;;;;;;8.57;1.80;;;9.20;99.90;;;;;;4998856;28;20502;-60
2023/06/05 05:04:28;;;;;;;4.25;2.08;;;9.20;99.90;;;;;;5001051;28;20570;-58
2023/06/05 05:06:53;;;;;;;2.03;1.70;;;9.30;99.90;;;;;;4998442;28;20129;-58
2023/06/05 05:09:19;;;;;;;5.97;2.00;;;9.40;99.90;;;;;;5001555;28;20561;-59
2023/06/05 05:11:44;;;;;;;3.20;2.00;;;9.50;99.90;;;;;;4999629;28;20513;-59
2023/06/05 05:14:10;;;;;;;2.90;1.92;;;9.50;99.90;;;;;;5001231;28;20033;-59
2023/06/05 05:16:36;;;;;;;3.42;1.92;;;9.60;99.90;;;;;;5000657;28;20018;-59
2023/06/05 05:19:01;;;;;;;2.65;2.03;;;9.70;99.90;;;;;;4996261;28;20041;-59
2023/06/05 05:21:27;;;;;;;3.33;2.33;;;9.80;99.90;;;;;;4997805;28;20037;-59
2023/06/05 05:23:53;;;;;;;5.78;2.17;;;9.90;99.90;;;;;;4999975;28;20026;-58
2023/06/05 05:26:19;;;;;;;2.75;2.08;;;10.00;99.90;;;;;;5000835;28;20074;-60
2023/06/05 05:28:45;;;;;;;4.70;2.20;;;10.10;99.90;;;;;;4999941;28;20438;-59
2023/06/05 05:31:10;;;;;;;3.30;2.08;;;10.10;99.90;;;;;;4999202;28;20030;-58
2023/06/05 05:33:36;;;;;;;3.60;2.38;;;10.20;99.90;;;;;;5002332;28;20026;-58
2023/06/05 05:36:02;;;;;;;2.08;1.88;;;10.30;99.90;;;;;;4999583;28;20433;-58
2023/06/05 05:38:28;;;;;;;2.25;1.95;;;10.30;99.90;;;;;;5002457;28;20485;-60
2023/06/05 05:40:53;;;;;;;4.43;2.38;;;10.40;99.90;;;;;;4998631;28;20023;-59
2023/06/05 05:43:19;;;;;;;6.13;2.60;;;10.40;99.90;;;;;;5001357;28;20026;-59
2023/06/05 05:45:45;;;;;;;2.95;1.83;;;10.40;99.90;;;;;;4998661;28;20088;-59
2023/06/05 05:48:11;;;;;;;3.35;2.00;;;10.40;99.90;;;;;;4999808;28;20765;-59
2023/06/05 05:50:36;;;;;;;3.85;2.08;;;10.40;99.90;;;;;;5003478;28;20033;-59
2023/06/05 05:53:03;;;;;;;3.72;1.90;;;10.50;99.90;;;;;;5002035;28;20030;-60
2023/06/05 05:55:28;;;;;;;5.57;1.60;;;10.60;99.90;;;;;;5002214;28;20045;-60
2023/06/05 05:57:54;;;;;;;3.88;1.90;;;10.70;99.90;;;;;;4998324;28;20042;-59
2023/06/05 06:00:21;;;;;;;6.13;1.95;;;10.90;99.90;;;;;;4998719;28;20048;-59
2023/06/05 06:02:47;;;;;;;2.35;1.70;;;11.10;99.90;;;;;;4996647;28;20027;-59
2023/06/05 06:05:13;;;;;;;2.55;1.83;;;11.30;99.90;;;;;;4996788;28;20027;-60
2023/06/05 06:07:41;;;;;;;4.03;1.75;;;11.50;99.90;;;;;;4998170;28;20077;-60
2023/06/05 06:10:08;;;;;;;4.15;2.00;;;11.80;99.90;;;;;;4997579;28;20034;-59
2023/06/05 06:12:33;;;;;;;3.85;1.83;;;12.10;99.90;;;;;;4995742;28;20022;-58
2023/06/05 06:14:59;;;;;;;3.42;1.70;;;12.30;99.90;;;;;;4997018;28;20019;-59
2023/06/05 06:17:26;;;;;;;4.28;1.83;;;12.50;99.90;;;;;;4993151;28;20567;-60
2023/06/05 06:19:52;;;;;;;1.98;1.30;;;12.70;99.90;;;;;;4996486;28;20639;-59
2023/06/05 06:22:19;;;;;;;3.92;1.88;;;12.90;99.90;;;;;;4998680;28;20032;-59
2023/06/05 06:24:44;;;;;;;3.15;1.70;;;13.10;99.90;;;;;;4997233;28;20041;-59
2023/06/05 06:27:12;;;;;;;2.33;2.13;;;13.30;99.90;;;;;;5003336;28;20022;-59
2023/06/05 06:29:53;;;;;;;6.38;1.73;;;13.50;99.90;;;;;;4993822;28;20014;-59
2023/06/05 06:32:19;;;;;;;3.60;1.70;;;13.70;99.90;;;;;;4996704;28;20038;-59
2023/06/05 06:34:45;;;;;;;2.60;1.40;;;14.00;99.90;;;;;;4995746;28;20042;-59
2023/06/05 06:37:15;;;;;;;2.50;1.63;;;14.20;99.90;;;;;;4995550;28;20530;-59
2023/06/05 06:39:44;;;;;;;3.30;1.58;;;14.50;99.90;;;;;;4999274;28;20558;-60
2023/06/05 06:42:12;;;;;;;2.60;1.48;;;14.70;99.90;;;;;;4999196;28;20495;-59
2023/06/05 06:44:39;;;;;;;5.78;1.75;;;14.90;99.90;;;;;;4999361;28;20037;-57
2023/06/05 06:47:05;;;;;;;2.75;1.60;;;15.10;99.90;;;;;;4993223;28;20030;-57
2023/06/05 06:49:31;;;;;;;3.30;1.60;;;15.30;99.90;;;;;;4994137;28;20121;-58
2023/06/05 06:51:57;;;;;;;4.57;1.73;;;15.50;99.90;;;;;;4999131;28;20124;-57
2023/06/05 06:54:22;;;;;;;4.50;1.70;;;15.70;99.90;;;;;;4997547;28;20049;-58
2023/06/05 06:56:51;;;;;;;8.05;1.80;;;15.90;99.40;;;;;;4995619;28;20038;-58
2023/06/05 06:59:17;;;;;;;2.72;1.75;;;16.10;97.20;;;;;;4997029;28;20394;-58
2023/06/05 07:01:48;;;;;;;4.47;1.60;;;16.30;96.30;;;;;;4994438;28;20042;-57
2023/06/05 07:04:19;;;;;;;4.13;1.90;;;16.50;95.50;;;;;;4998868;28;20633;-58
2023/06/05 07:06:46;;;;;;;4.90;1.35;;;16.80;94.80;;;;;;4997265;28;20514;-56
2023/06/05 07:09:12;;;;;;;9.38;1.67;;;16.90;94.70;;;;;;4996185;28;20029;-56
2023/06/05 07:11:38;;;;;;;4.47;1.98;;;17.10;93.20;;;;;;4994163;28;20022;-57
2023/06/05 07:14:03;;;;;;;6.05;1.42;;;17.20;91.70;;;;;;4995721;28;20038;-58
2023/06/05 07:16:29;;;;;;;5.40;1.67;;;17.50;89.80;;;;;;4994071;28;20084;-57
2023/06/05 07:18:55;;;;;;;4.35;1.77;;;17.70;88.30;;;;;;5000004;28;20037;-57
2023/06/05 07:21:21;;;;;;;7.88;1.73;;;18.00;91.00;;;;;;4996644;28;20033;-56
2023/06/05 07:23:54;;;;;;;3.50;1.40;;;18.20;88.50;;;;;;4995956;28;20030;-57
2023/06/05 07:26:20;;;;;;;2.08;1.52;;;18.40;89.00;;;;;;4995368;28;20042;-57
2023/06/05 07:28:49;;;;;;;4.13;1.60;;;18.60;81.10;;;;;;5000391;28;20039;-56
2023/06/05 07:31:15;;;;;;;2.88;1.75;;;18.80;77.20;;;;;;4997748;28;20038;-56
2023/06/05 07:33:42;;;;;;;2.75;1.70;;;19.10;76.90;;;;;;4996960;28;20033;-57
2023/06/05 07:36:10;;;;;;;4.60;1.33;;;19.40;71.20;;;;;;4994482;28;20076;-57
2023/06/05 07:38:36;;;;;;;1.98;1.52;;;19.80;68.40;;;;;;4997394;28;20023;-58
2023/06/05 07:41:01;;;;;;;3.90;1.70;;;20.00;67.60;;;;;;4997203;28;20966;-58
2023/06/05 07:43:28;;;;;;;2.00;1.30;;;20.20;65.00;;;;;;4995912;28;20026;-58
2023/06/05 07:45:54;;;;;;;3.80;1.35;;;20.40;66.60;;;;;;4997491;28;20023;-57
2023/06/05 07:48:20;;;;;;;4.68;1.70;;;20.50;65.30;;;;;;4997429;28;20057;-58
2023/06/05 07:50:46;;;;;;;1.95;1.50;;;20.70;64.60;;;;;;4993526;28;20751;-57
2023/06/05 07:53:11;;;;;;;2.10;1.60;;;20.80;64.00;;;;;;4995288;28;20030;-58
2023/06/05 07:55:37;;;;;;;2.75;1.50;;;21.00;64.40;;;;;;4992589;28;20145;-58
2023/06/05 07:58:03;;;;;;;2.15;1.65;;;21.10;61.30;;;;;;4997491;28;20031;-57
2023/06/05 08:00:28;;;;;;;3.28;2.03;;;21.10;64.60;;;;;;4992980;28;20031;-58
2023/06/05 08:02:54;;;;;;;2.85;1.52;;;21.20;63.10;;;;;;4999150;28;20021;-58
2023/06/05 08:05:20;;;;;;;4.65;1.80;;;21.30;63.40;;;;;;4997006;28;20043;-58
2023/06/05 08:07:46;;;;;;;5.05;2.00;;;21.30;65.80;;;;;;4995035;28;20030;-58
2023/06/05 08:10:15;;;;;;;3.78;1.88;;;21.30;63.20;;;;;;4995844;28;20049;-57
2023/06/05 08:12:40;;;;;;;2.58;2.30;;;21.20;63.10;;;;;;5001316;28;20038;-58
2023/06/05 08:15:07;;;;;;;6.20;2.10;;;21.30;63.40;;;;;;5001591;28;20548;-57
2023/06/05 08:17:32;;;;;;;3.00;2.10;;;21.40;63.20;;;;;;5001105;28;20035;-57
2023/06/05 08:19:58;;;;;;;3.90;2.25;;;21.40;63.20;;;;;;5002897;28;20176;-58
2023/06/05 08:22:24;;;;;;;5.40;2.55;;;21.50;63.70;;;;;;5003127;28;20026;-58
2023/06/05 08:24:50;;;;;;;4.50;2.10;;;21.60;64.00;;;;;;5000294;28;20495;-58
2023/06/05 08:27:17;;;;;;;2.90;2.30;;;21.70;64.00;;;;;;4996328;28;20033;-58
2023/06/05 08:29:43;;;;;;;6.85;2.40;;;21.80;64.50;;;;;;5001905;28;20061;-59
2023/06/05 08:32:08;;;;;;;4.55;2.10;;;21.90;66.50;;;;;;4999390;28;20061;-57
2023/06/05 08:34:35;;;;;;;4.68;2.70;;;21.90;65.00;;;;;;5000316;28;20026;-58
2023/06/05 08:37:02;;;;;;;4.97;2.72;;;22.00;65.50;;;;;;4996179;28;20035;-58
2023/06/05 08:39:31;;;;;;;3.08;2.53;;;22.00;68.50;;;;;;5002945;28;20499;-58
2023/06/05 08:42:03;;;;;;;5.90;2.75;;;22.10;67.00;;;;;;5000334;28;20023;-57
2023/06/05 08:44:29;;;;;;;7.50;2.85;;;22.20;68.40;;;;;;5002338;28;20030;-58
2023/06/05 08:47:00;;;;;;;3.58;2.60;;;22.30;65.20;;;;;;4994261;28;20045;-58
2023/06/05 08:49:29;;;;;;;4.32;2.50;;;22.40;66.70;;;;;;5002805;28;20563;-59
2023/06/05 08:52:00;;;;;;;4.10;2.50;;;22.40;64.50;;;;;;5000520;28;20046;-58
2023/06/05 08:54:38;;;;;;;3.58;2.63;;;22.40;64.20;;;;;;4997263;28;20062;-57
2023/06/05 08:57:06;;;;;;;4.15;2.50;;;22.40;64.70;;;;;;4993302;28;20765;-59
2023/06/05 08:59:32;;;;;;;2.70;2.50;;;22.40;67.10;;;;;;5000585;28;20014;-58
2023/06/05 09:01:58;;;;;;;5.88;2.42;;;22.60;65.90;;;;;;4999339;28;20034;-58
2023/06/05 09:04:24;;;;;;;2.72;2.33;;;22.70;63.80;;;;;;4996695;28;20034;-57
2023/06/05 09:06:53;;;;;;;3.70;2.78;;;22.80;63.10;;;;;;4997197;28;20813;-59
2023/06/05 09:09:19;;;;;;;4.82;2.53;;;22.80;64.10;;;;;;4998643;28;20058;-59
2023/06/05 09:11:45;;;;;;;5.10;2.63;;;22.90;66.90;;;;;;4999591;28;20516;-57
2023/06/05 09:14:11;;;;;;;2.70;2.50;;;23.10;66.50;;;;;;4997149;28;20030;-58
2023/06/05 09:16:40;;;;;;;4.00;2.67;;;23.30;65.70;;;;;;4998551;28;20019;-57
2023/06/05 09:19:06;;;;;;;5.18;2.33;;;23.30;61.40;;;;;;5000396;28;20033;-58
2023/06/05 09:21:32;;;;;;;5.63;2.50;;;23.40;61.30;;;;;;4998060;28;20027;-57
2023/06/05 09:24:13;;;;;;;4.50;2.70;;;23.50;62.10;;;;;;4994948;28;20471;-57
2023/06/05 09:26:55;;;;;;;;;;;23.50;62.10;;;;;;4996550;28;20037;-59
2023/06/05 09:29:28;;;;;;;4.78;2.95;;;23.70;61.60;;;;;;4998401;28;19959;-58
2023/06/05 09:31:57;;;;;;;3.42;3.10;;;24.00;63.70;;;;;;4996725;28;20038;-58
2023/06/05 09:34:26;;;;;;;2.60;2.35;;;24.20;63.20;;;;;;4997656;28;20030;-58
2023/06/05 09:36:53;;;;;;;3.85;3.20;;;24.50;61.10;;;;;;4996172;28;20034;-58
2023/06/05 09:39:19;;;;;;;4.55;2.90;;;24.70;62.10;;;;;;4999298;28;20026;-58
2023/06/05 09:41:48;;;;;;;3.70;2.75;;;24.90;59.90;;;;;;4996983;28;20105;-58
2023/06/05 09:44:14;;;;;;;3.47;3.03;;;24.90;57.90;;;;;;4996483;28;20032;-58
2023/06/05 09:46:55;;;;;;;10.00;2.75;;;24.90;59.20;;;;;;4998884;28;20034;-59
2023/06/05 09:49:30;;;;;;;3.47;2.80;;;24.90;58.50;;;;;;4998123;28;20034;-58
2023/06/05 09:51:57;;;;;;;3.67;2.65;;;24.80;57.80;;;;;;4998377;28;20034;-58
2023/06/05 09:54:26;;;;;;;4.45;2.97;;;24.70;59.50;;;;;;4998285;28;20030;-57
2023/06/05 09:56:56;;;;;;;7.80;3.50;;;24.60;60.30;;;;;;4998510;28;20030;-59
2023/06/05 09:59:22;;;;;;;;;;;24.60;59.90;;;;;;4999457;28;20359;-58
2023/06/05 10:01:50;;;;;;;6.13;2.88;;;24.60;59.30;;;;;;5001186;28;19912;-58
2023/06/05 10:04:26;;;;;;;4.38;2.40;;;24.80;59.20;;;;;;4997204;28;20096;-59
2023/06/05 10:06:55;;;;;;;3.97;2.90;;;24.80;60.80;;;;;;4997427;28;20049;-59
2023/06/05 10:09:21;;;;;;;5.28;2.40;;;25.10;58.20;;;;;;4997015;28;20027;-59
2023/06/05 10:11:50;;;;;;;2.97;2.60;;;25.20;58.80;;;;;;4998285;28;20029;-58
2023/06/05 10:14:16;;;;;;;8.35;3.30;;;25.10;58.10;;;;;;5000445;28;20030;-57
2023/06/05 10:16:43;;;;;;;5.47;2.83;;;25.20;57.70;;;;;;4998751;28;20537;-57
2023/06/05 10:19:09;;;;;;;3.78;2.80;;;25.20;59.50;;;;;;4995801;28;20037;-58
2023/06/05 10:21:35;;;;;;;4.32;2.83;;;25.00;58.60;;;;;;4993715;28;20022;-58
2023/06/05 10:24:13;;;;;;;4.07;3.08;;;25.00;57.70;;;;;;4997066;28;20029;-58
2023/06/05 10:26:51;;;;;;;8.27;3.08;;;24.70;57.40;;;;;;4996346;28;20772;-57
2023/06/05 10:29:23;;;;;;;4.32;2.97;;;24.50;58.40;;;;;;4996123;28;20066;-59
2023/06/05 10:32:01;;;;;;;4.70;2.88;;;24.20;59.20;;;;;;4992152;28;20042;-59
2023/06/05 10:34:48;;;;;;;4.65;3.20;;;24.30;61.30;;;;;;4998393;28;20034;-58
2023/06/05 10:37:39;;;;;;;4.78;2.55;;;24.60;60.00;;;;;;4994661;28;20030;-58
2023/06/05 10:40:06;;;;;;;3.13;2.70;;;24.90;59.90;;;;;;4998894;28;20030;-57
2023/06/05 10:42:33;;;;;;;3.47;2.35;;;25.20;58.20;;;;;;4998506;28;20122;-58
2023/06/05 10:44:59;;;;;;;4.55;2.78;;;25.40;57.50;;;;;;4997669;28;20026;-55
2023/06/05 10:47:35;;;;;;;4.55;3.67;;;25.50;57.20;;;;;;4997343;28;20390;-58
2023/06/05 10:50:16;;;;;;;4.85;3.10;;;25.40;58.70;;;;;;4996161;28;20042;-57
2023/06/05 10:52:43;;;;;;;2.70;2.50;;;25.10;58.40;;;;;;4996661;28;20039;-59
2023/06/05 10:55:11;;;;;;;4.38;3.45;;;24.80;59.00;;;;;;4998494;28;20512;-57
2023/06/05 10:58:02;;;;;;;4.85;2.80;;;24.80;59.10;;;;;;4995027;28;20398;-58
2023/06/05 11:00:29;;;;;;;4.57;2.92;;;24.80;59.80;;;;;;4998192;28;20141;-58
2023/06/05 11:02:55;;;;;;;4.35;3.55;;;25.00;58.50;;;;;;4995415;28;20023;-57
2023/06/05 11:05:21;;;;;;;4.47;3.03;;;25.00;60.00;;;;;;4994194;28;20030;-59
2023/06/05 11:07:47;;;;;;;3.97;3.33;;;25.10;60.50;;;;;;4995379;28;20489;-58
2023/06/05 11:10:21;;;;;;;3.78;3.30;;;25.20;60.70;;;;;;4998467;28;20030;-59
2023/06/05 11:12:46;;;;;;;3.38;2.90;;;25.20;59.70;;;;;;4997264;28;20030;-57
2023/06/05 11:15:12;;;;;;;5.25;3.80;;;25.30;58.30;;;;;;4996954;28;20092;-58
2023/06/05 11:17:39;;;;;;;3.42;3.13;;;25.30;59.40;;;;;;4993781;28;20030;-58
2023/06/05 11:20:29;;;;;;;4.53;3.33;;;25.40;59.70;;;;;;4993453;28;20035;-57
2023/06/05 11:22:57;;;;;;;3.60;3.28;;;25.50;59.10;;;;;;4998415;28;20593;-58
2023/06/05 11:25:32;;;;;;;3.75;3.22;;;25.60;57.60;;;;;;4995479;28;20089;-58
2023/06/05 11:28:05;;;;;;;5.90;3.45;;;25.80;57.30;;;;;;4994446;28;20437;-58
2023/06/05 11:30:33;;;;;;;3.15;2.85;;;25.80;56.60;;;;;;4994933;28;20022;-58
2023/06/05 11:33:12;;;;;;;4.05;3.15;;;25.80;57.50;;;;;;4993987;28;20457;-58
2023/06/05 11:35:42;;;;;;;3.67;2.88;;;25.60;58.30;;;;;;4998459;28;20036;-59
2023/06/05 11:38:11;;;;;;;4.90;3.60;;;25.60;58.10;;;;;;4997764;28;20378;-58
2023/06/05 11:40:38;;;;;;;3.67;2.83;;;25.60;58.70;;;;;;4996153;28;20053;-59
2023/06/05 11:43:05;;;;;;;3.85;3.38;;;25.40;57.30;;;;;;4994608;28;20490;-58
2023/06/05 11:45:34;;;;;;;5.63;3.45;;;25.40;58.80;;;;;;4998800;28;20088;-57
2023/06/05 11:48:13;;;;;;;7.53;3.45;;;25.50;58.20;;;;;;4996933;28;20113;-59
2023/06/05 11:50:52;;;;;;;3.92;3.55;;;25.60;58.00;;;;;;5004390;28;20033;-59
2023/06/05 11:53:18;;;;;;;7.13;3.45;;;25.60;57.70;;;;;;4998483;28;20062;-58
2023/06/05 11:58:26;;;;;;;3.55;2.92;;;26.20;59.60;;;;;;5001060;28;20041;-59
2023/06/05 12:01:04;;;;;;;3.88;2.90;;;26.70;59.60;;;;;;4998422;28;20100;-57
2023/06/05 12:03:30;;;;;;;4.03;3.60;;;27.00;56.20;;;;;;4998886;28;20478;-58
2023/06/05 12:05:55;;;;;;;3.95;3.53;;;26.90;55.30;;;;;;4999291;28;20022;-58
2023/06/05 12:08:25;;;;;;;3.97;3.22;;;26.40;56.00;;;;;;4996593;28;20106;-59
2023/06/05 12:10:56;;;;;;;5.47;3.90;;;26.20;57.10;;;;;;4996371;28;20614;-59
2023/06/05 12:13:22;;;;;;;3.63;3.08;;;25.80;56.70;;;;;;5000493;28;20030;-60
2023/06/05 12:16:00;;;;;;;5.03;3.55;;;25.40;56.50;;;;;;5000022;28;20100;-57
2023/06/05 12:18:33;;;;;;;14.82;4.53;;;25.10;58.10;;;;;;4999970;28;20080;-59
2023/06/05 12:20:59;;;;;;;5.63;3.28;;;25.00;58.30;;;;;;4999530;28;20105;-58
2023/06/05 12:23:25;;;;;;;3.72;3.17;;;24.80;57.50;;;;;;4999181;28;20030;-59
2023/06/05 12:26:01;;;;;;;4.85;3.47;;;24.80;59.00;;;;;;5000727;28;20124;-59
2023/06/05 12:28:28;;;;;;;3.67;3.38;;;24.60;58.70;;;;;;5000508;28;20056;-59
2023/06/05 12:30:54;;;;;;;3.60;3.30;;;24.70;59.00;;;;;;5000433;28;20034;-59
2023/06/05 12:33:19;;;;;;;4.57;2.72;;;24.60;58.90;;;;;;5000710;28;20705;-58
2023/06/05 12:35:48;;;;;;;5.22;3.30;;;24.50;59.70;;;;;;4998532;28;20034;-58
2023/06/05 12:38:14;;;;;;;4.20;3.00;;;24.60;58.70;;;;;;4999878;28;20121;-59
2023/06/05 12:40:40;;;;;;;5.75;3.30;;;24.90;59.50;;;;;;5002913;28;20175;-58
2023/06/05 12:43:19;;;;;;;4.75;3.33;;;25.10;59.80;;;;;;4997123;28;20131;-58
2023/06/05 12:45:45;;;;;;;4.55;3.58;;;25.60;57.80;;;;;;5001205;28;20030;-57
2023/06/05 12:48:12;;;;;;;3.80;3.33;;;25.70;58.80;;;;;;4997233;28;20029;-59
2023/06/05 12:50:41;;;;;;;4.13;3.08;;;25.70;57.30;;;;;;4999027;28;20505;-59
2023/06/05 12:53:07;;;;;;;4.28;3.78;;;25.60;57.20;;;;;;5000825;28;20037;-57
2023/06/05 12:55:33;;;;;;;4.28;3.20;;;25.70;57.90;;;;;;4997825;28;20683;-59